Time;durP1;ratioP1;P1;durP2;ratioP2;P2;SDS_P1;SDS_P2;PMS_P1;PMS_P2;Temp;Humidity;BMP_temperature;BMP_pressure;BME280_temperature;BME280_humidity;BME280_pressure;Samples;Min_cycle;Max_cycle;Signal;HPM_P1;HPM_P2
2022/03/16 00:01:10;;;;;;;23.37;13.90;;;;;;;;;;5094419;28;20457;-72
2022/03/16 00:03:41;;;;;;;25.17;14.30;;;;;;;;;;5096955;28;20983;-72
2022/03/16 00:06:09;;;;;;;29.20;14.83;;;;;;;;;;5096436;28;20483;-72
2022/03/16 00:08:41;;;;;;;21.67;13.10;;;;;;;;;;5096652;28;20539;-73
2022/03/16 00:11:09;;;;;;;21.50;13.90;;;;;;;;;;5096388;28;20471;-73
2022/03/16 00:13:36;;;;;;;23.20;13.73;;;;;;;;;;5097024;28;20736;-72
2022/03/16 00:16:04;;;;;;;26.50;15.47;;;;;;;;;;5096953;28;20542;-72
2022/03/16 00:18:35;;;;;;;24.87;14.23;;;;;;;;;;5096849;28;20457;-72
2022/03/16 00:21:03;;;;;;;20.77;13.57;;;;;;;;;;5096978;28;20728;-73
2022/03/16 00:23:32;;;;;;;28.47;14.70;;;;;;;;;;5096884;28;20816;-71
2022/03/16 00:26:03;;;;;;;24.97;13.17;;;;;;;;;;5095902;28;20491;-72
2022/03/16 00:28:30;;;;;;;25.73;14.33;;;;;;;;;;5097284;28;20459;-72
2022/03/16 00:30:58;;;;;;;21.63;14.50;;;;;;;;;;5096346;28;20456;-72
2022/03/16 00:33:26;;;;;;;25.40;14.37;;;;;;;;;;5096550;28;20444;-73
2022/03/16 00:35:54;;;;;;;25.20;15.10;;;;;;;;;;5096389;28;20559;-72
2022/03/16 00:38:22;;;;;;;21.33;12.80;;;;;;;;;;5095840;28;20526;-72
2022/03/16 00:40:50;;;;;;;21.27;12.63;;;;;;;;;;5095922;28;20817;-72
2022/03/16 00:43:19;;;;;;;19.87;13.03;;;;;;;;;;5096171;28;20567;-72
2022/03/16 00:45:50;;;;;;;27.10;14.60;;;;;;;;;;5095727;28;20459;-72
2022/03/16 00:48:18;;;;;;;21.83;14.20;;;;;;;;;;5096071;28;20871;-72
2022/03/16 00:50:48;;;;;;;22.37;14.77;;;;;;;;;;5095518;28;20525;-72
2022/03/16 00:53:19;;;;;;;25.43;13.50;;;;;;;;;;5095943;28;20448;-73
2022/03/16 00:55:50;;;;;;;21.37;13.50;;;;;;;;;;5095642;28;20843;-72
2022/03/16 00:58:20;;;;;;;25.53;14.00;;;;;;;;;;5096106;28;20456;-72
2022/03/16 01:00:47;;;;;;;21.87;13.10;;;;;;;;;;5096035;28;20516;-72
2022/03/16 01:03:15;;;;;;;22.70;12.87;;;;;;;;;;5096304;28;20934;-72
2022/03/16 01:05:44;;;;;;;23.93;15.30;;;;;;;;;;5096007;28;20471;-72
2022/03/16 01:08:12;;;;;;;27.30;16.27;;;;;;;;;;5095790;28;20793;-72
2022/03/16 01:10:40;;;;;;;21.97;13.33;;;;;;;;;;5096180;28;21001;-72
2022/03/16 01:13:08;;;;;;;23.83;14.10;;;;;;;;;;5095615;28;20451;-72
2022/03/16 01:15:38;;;;;;;23.07;15.07;;;;;;;;;;5092716;28;20900;-72
2022/03/16 01:18:06;;;;;;;20.57;13.23;;;;;;;;;;5075566;28;20459;-72
2022/03/16 01:20:34;;;;;;;24.80;13.70;;;;;;;;;;5085709;28;20863;-72
2022/03/16 01:23:01;;;;;;;26.90;14.57;;;;;;;;;;5095466;28;20459;-72
2022/03/16 01:25:29;;;;;;;24.03;14.97;;;;;;;;;;5095904;28;20529;-72
2022/03/16 01:27:57;;;;;;;28.77;14.43;;;;;;;;;;5092732;28;20487;-72
2022/03/16 01:30:25;;;;;;;26.13;13.87;;;;;;;;;;5076209;28;20457;-72
2022/03/16 01:32:57;;;;;;;22.87;13.87;;;;;;;;;;5075464;28;20452;-72
2022/03/16 01:35:25;;;;;;;21.17;13.33;;;;;;;;;;5075187;28;20470;-72
2022/03/16 01:37:53;;;;;;;20.33;13.33;;;;;;;;;;5080373;28;20448;-72
2022/03/16 01:40:22;;;;;;;26.67;15.40;;;;;;;;;;5085735;28;20460;-72
2022/03/16 01:42:49;;;;;;;25.07;13.07;;;;;;;;;;5080713;28;20990;-72
2022/03/16 01:45:20;;;;;;;26.50;14.70;;;;;;;;;;5075257;28;20890;-72
2022/03/16 01:47:48;;;;;;;25.70;15.40;;;;;;;;;;5077409;28;20488;-71
2022/03/16 01:50:21;;;;;;;23.13;14.37;;;;;;;;;;5092287;28;20955;-72
2022/03/16 01:52:49;;;;;;;25.00;14.20;;;;;;;;;;5085765;28;20448;-72
2022/03/16 01:55:17;;;;;;;27.07;14.40;;;;;;;;;;5089930;28;20459;-72
2022/03/16 01:57:48;;;;;;;25.57;14.10;;;;;;;;;;5095142;28;20451;-71
2022/03/16 02:00:16;;;;;;;22.53;14.33;;;;;;;;;;5094683;28;20446;-71
2022/03/16 02:02:46;;;;;;;25.00;15.07;;;;;;;;;;5095274;28;20474;-72
2022/03/16 02:05:14;;;;;;;21.57;14.10;;;;;;;;;;5095191;28;20451;-71
2022/03/16 02:07:44;;;;;;;26.37;15.40;;;;;;;;;;5094730;28;20471;-72
2022/03/16 02:10:12;;;;;;;24.93;14.73;;;;;;;;;;5099316;28;20447;-72
2022/03/16 02:12:52;;;;;;;25.43;14.23;;;;;;;;;;5115377;28;20450;-72
2022/03/16 02:15:20;;;;;;;22.07;14.93;;;;;;;;;;5091577;28;20452;-72
2022/03/16 02:17:50;;;;;;;24.87;13.73;;;;;;;;;;5095363;28;20443;-72
2022/03/16 02:20:18;;;;;;;26.73;14.83;;;;;;;;;;5094341;28;20471;-71
2022/03/16 02:22:53;;;;;;;29.27;16.47;;;;;;;;;;5094927;28;20468;-72
2022/03/16 02:25:21;;;;;;;24.10;16.40;;;;;;;;;;5095026;28;20546;-72
2022/03/16 02:27:48;;;;;;;22.90;13.83;;;;;;;;;;5095057;28;20484;-72
2022/03/16 02:30:19;;;;;;;20.30;12.23;;;;;;;;;;5095127;28;20451;-72
2022/03/16 02:32:47;;;;;;;29.93;13.87;;;;;;;;;;5095995;28;20505;-72
2022/03/16 02:35:15;;;;;;;24.23;13.20;;;;;;;;;;5099071;28;21044;-73
2022/03/16 02:37:57;;;;;;;26.80;12.90;;;;;;;;;;5098416;28;20546;-72
2022/03/16 02:40:27;;;;;;;20.20;11.23;;;;;;;;;;5077513;28;20437;-71
2022/03/16 02:42:55;;;;;;;16.40;11.67;;;;;;;;;;5077883;28;20464;-72
2022/03/16 02:45:23;;;;;;;18.93;12.70;;;;;;;;;;5078298;28;20801;-72
2022/03/16 02:47:51;;;;;;;19.77;11.20;;;;;;;;;;5078659;28;20488;-72
2022/03/16 02:50:19;;;;;;;22.87;13.70;;;;;;;;;;5078085;28;20444;-72
2022/03/16 02:52:47;;;;;;;19.40;12.57;;;;;;;;;;5078228;28;20448;-72
2022/03/16 02:55:16;;;;;;;20.80;13.00;;;;;;;;;;5078318;28;20513;-72
2022/03/16 02:57:45;;;;;;;20.63;13.70;;;;;;;;;;5077987;28;20452;-72
2022/03/16 03:00:14;;;;;;;18.80;11.67;;;;;;;;;;5077586;28;20449;-71
2022/03/16 03:02:42;;;;;;;17.37;11.00;;;;;;;;;;5077847;28;20490;-72
2022/03/16 03:05:10;;;;;;;25.10;14.20;;;;;;;;;;5077743;28;20523;-71
2022/03/16 03:07:38;;;;;;;17.80;12.07;;;;;;;;;;5077650;28;20568;-72
2022/03/16 03:10:06;;;;;;;22.10;12.60;;;;;;;;;;5076525;28;20882;-72
2022/03/16 03:12:37;;;;;;;26.20;14.40;;;;;;;;;;5077782;28;20503;-72
2022/03/16 03:15:10;;;;;;;20.30;12.37;;;;;;;;;;5077921;28;20868;-72
2022/03/16 03:17:37;;;;;;;17.93;12.90;;;;;;;;;;5077724;28;20558;-72
2022/03/16 03:20:06;;;;;;;22.27;12.57;;;;;;;;;;5077325;28;20455;-72
2022/03/16 03:22:34;;;;;;;21.53;11.97;;;;;;;;;;5077529;28;20558;-72
2022/03/16 03:25:02;;;;;;;18.90;13.07;;;;;;;;;;5078062;28;20456;-72
2022/03/16 03:27:30;;;;;;;18.40;13.07;;;;;;;;;;5077763;28;20928;-71
2022/03/16 03:30:00;;;;;;;25.23;14.70;;;;;;;;;;5087244;28;20516;-72
2022/03/16 03:32:30;;;;;;;22.57;13.20;;;;;;;;;;5097404;28;20731;-72
2022/03/16 03:34:58;;;;;;;23.57;13.73;;;;;;;;;;5077570;28;20540;-71
2022/03/16 03:37:28;;;;;;;24.60;13.70;;;;;;;;;;5077320;28;20464;-72
2022/03/16 03:39:56;;;;;;;23.47;11.90;;;;;;;;;;5095709;28;20452;-71
2022/03/16 03:42:24;;;;;;;18.93;11.90;;;;;;;;;;5097366;28;20456;-71
2022/03/16 03:44:51;;;;;;;20.60;12.03;;;;;;;;;;5097329;28;20473;-71
2022/03/16 03:47:19;;;;;;;23.33;11.77;;;;;;;;;;5098094;28;20498;-72
2022/03/16 03:49:49;;;;;;;20.30;13.00;;;;;;;;;;5097130;28;20459;-73
2022/03/16 03:52:16;;;;;;;23.93;12.73;;;;;;;;;;5098023;28;20526;-72
2022/03/16 03:54:46;;;;;;;26.50;13.93;;;;;;;;;;5097837;28;20455;-73
2022/03/16 03:57:13;;;;;;;17.33;11.87;;;;;;;;;;5090977;28;20956;-72
2022/03/16 03:59:41;;;;;;;25.47;13.53;;;;;;;;;;5077473;28;20459;-72
2022/03/16 04:02:09;;;;;;;19.17;11.67;;;;;;;;;;5085993;28;20844;-73
2022/03/16 04:04:37;;;;;;;19.67;11.47;;;;;;;;;;5086144;28;20701;-72
2022/03/16 04:07:08;;;;;;;21.77;12.70;;;;;;;;;;5097646;28;20490;-73
2022/03/16 04:09:35;;;;;;;20.13;12.73;;;;;;;;;;5097442;28;20891;-72
2022/03/16 04:12:04;;;;;;;22.93;12.00;;;;;;;;;;5097326;28;20513;-73
2022/03/16 04:14:32;;;;;;;19.57;12.10;;;;;;;;;;5096803;28;20468;-72
2022/03/16 04:17:00;;;;;;;20.73;10.90;;;;;;;;;;5096161;28;20788;-73
2022/03/16 04:19:29;;;;;;;20.17;10.80;;;;;;;;;;5096422;28;20848;-73
2022/03/16 04:21:56;;;;;;;17.27;11.50;;;;;;;;;;5096085;28;20487;-73
2022/03/16 04:24:31;;;;;;;18.10;10.73;;;;;;;;;;5095763;28;20455;-72
2022/03/16 04:26:59;;;;;;;18.13;10.53;;;;;;;;;;5096304;28;20447;-73
2022/03/16 04:29:27;;;;;;;19.63;10.70;;;;;;;;;;5095943;28;20482;-73
2022/03/16 04:31:55;;;;;;;16.10;10.20;;;;;;;;;;5096503;28;20452;-73
2022/03/16 04:34:23;;;;;;;15.80;10.27;;;;;;;;;;5096014;28;20798;-72
2022/03/16 04:36:52;;;;;;;19.77;11.20;;;;;;;;;;5096662;28;20459;-73
2022/03/16 04:39:21;;;;;;;19.90;10.60;;;;;;;;;;5096564;28;20875;-73
2022/03/16 04:41:50;;;;;;;22.30;10.80;;;;;;;;;;5095610;28;20978;-72
2022/03/16 04:44:18;;;;;;;24.17;11.10;;;;;;;;;;5095917;28;20467;-72
2022/03/16 04:46:46;;;;;;;20.73;10.10;;;;;;;;;;5096305;28;20547;-73
2022/03/16 04:49:13;;;;;;;21.07;10.80;;;;;;;;;;5095682;28;20484;-73
2022/03/16 04:51:41;;;;;;;20.47;9.97;;;;;;;;;;5096676;28;20456;-73
2022/03/16 04:54:09;;;;;;;16.87;9.90;;;;;;;;;;5089805;28;20452;-72
2022/03/16 04:56:37;;;;;;;18.40;10.30;;;;;;;;;;5100028;28;20457;-73
2022/03/16 04:59:10;;;;;;;21.90;10.07;;;;;;;;;;5116200;28;20730;-73
2022/03/16 05:01:38;;;;;;;16.73;9.73;;;;;;;;;;5092813;28;20507;-72
2022/03/16 05:04:06;;;;;;;18.63;10.03;;;;;;;;;;5115218;28;20446;-72
2022/03/16 05:06:34;;;;;;;15.77;9.90;;;;;;;;;;5110471;28;20455;-72
2022/03/16 05:09:05;;;;;;;20.20;11.30;;;;;;;;;;5096147;28;20581;-72
2022/03/16 05:11:42;;;;;;;20.23;11.70;;;;;;;;;;5094935;28;20465;-73
2022/03/16 05:14:12;;;;;;;16.23;9.53;;;;;;;;;;5095676;28;20874;-71
2022/03/16 05:16:42;;;;;;;17.27;10.03;;;;;;;;;;5094377;28;20469;-72
2022/03/16 05:19:10;;;;;;;15.63;9.43;;;;;;;;;;5095603;28;20475;-73
2022/03/16 05:21:38;;;;;;;18.40;9.30;;;;;;;;;;5095546;28;20498;-73
2022/03/16 05:24:06;;;;;;;22.60;10.83;;;;;;;;;;5095447;28;20521;-73
2022/03/16 05:26:34;;;;;;;16.13;10.07;;;;;;;;;;5095723;28;20844;-73
2022/03/16 05:29:03;;;;;;;16.67;10.63;;;;;;;;;;5095557;28;20551;-73
2022/03/16 05:31:34;;;;;;;15.63;9.83;;;;;;;;;;5094733;28;20624;-71
2022/03/16 05:34:01;;;;;;;24.10;10.70;;;;;;;;;;5095562;28;20851;-73
2022/03/16 05:36:31;;;;;;;16.43;11.23;;;;;;;;;;5095356;28;20640;-73
2022/03/16 05:38:59;;;;;;;19.37;10.80;;;;;;;;;;5094736;28;20467;-73
2022/03/16 05:41:30;;;;;;;30.30;11.40;;;;;;;;;;5094995;28;20457;-74
2022/03/16 05:43:58;;;;;;;23.07;11.37;;;;;;;;;;5081409;28;20461;-72
2022/03/16 05:46:30;;;;;;;18.20;9.47;;;;;;;;;;5095416;28;20448;-72
2022/03/16 05:48:59;;;;;;;14.83;8.90;;;;;;;;;;5084982;28;20491;-72
2022/03/16 05:51:28;;;;;;;18.83;10.30;;;;;;;;;;5074766;28;20460;-72
2022/03/16 05:54:01;;;;;;;23.50;9.50;;;;;;;;;;5085034;28;20499;-71
2022/03/16 05:56:31;;;;;;;16.20;8.73;;;;;;;;;;5075445;28;20513;-72
2022/03/16 05:58:59;;;;;;;17.77;10.17;;;;;;;;;;5094541;28;20451;-72
2022/03/16 06:01:27;;;;;;;21.80;10.17;;;;;;;;;;5088047;28;20448;-71
2022/03/16 06:03:56;;;;;;;14.77;8.70;;;;;;;;;;5083957;28;20454;-73
2022/03/16 06:06:26;;;;;;;14.37;8.83;;;;;;;;;;5093387;28;20462;-72
2022/03/16 06:08:54;;;;;;;20.67;10.40;;;;;;;;;;5094918;28;20942;-73
2022/03/16 06:11:24;;;;;;;14.20;9.13;;;;;;;;;;5085527;28;20860;-78
2022/03/16 06:13:52;;;;;;;15.03;9.53;;;;;;;;;;5097163;28;20509;-73
2022/03/16 06:16:20;;;;;;;14.37;8.87;;;;;;;;;;5096509;28;20530;-72
2022/03/16 06:18:50;;;;;;;20.23;10.33;;;;;;;;;;5096702;28;20436;-73
2022/03/16 06:21:18;;;;;;;22.20;10.30;;;;;;;;;;5093233;28;20448;-73
2022/03/16 06:27:06;;;;;;;24.40;9.87;;;;;;;;;;5061545;28;20518;-71
2022/03/16 06:29:36;;;;;;;19.20;10.77;;;;;;;;;;5095073;28;20552;-71
2022/03/16 06:32:06;;;;;;;21.77;10.17;;;;;;;;;;5095815;28;20436;-72
2022/03/16 06:34:39;;;;;;;18.77;10.17;;;;;;;;;;5095588;28;20542;-71
2022/03/16 06:37:08;;;;;;;20.23;10.60;;;;;;;;;;5094663;28;20466;-72
2022/03/16 06:39:37;;;;;;;18.60;10.70;;;;;;;;;;5075004;28;21079;-73
2022/03/16 06:42:08;;;;;;;17.17;11.53;;;;;;;;;;5074931;28;20488;-72
2022/03/16 06:44:37;;;;;;;22.90;11.50;;;;;;;;;;5074719;28;20452;-73
2022/03/16 06:47:05;;;;;;;16.50;9.87;;;;;;;;;;5095119;28;20446;-72
2022/03/16 06:49:37;;;;;;;20.33;12.33;;;;;;;;;;5100093;28;20569;-73
2022/03/16 06:52:14;;;;;;;18.53;11.20;;;;;;;;;;5094905;28;20462;-73
2022/03/16 06:54:43;;;;;;;17.10;9.70;;;;;;;;;;5094495;28;20462;-72
2022/03/16 06:57:13;;;;;;;15.87;10.03;;;;;;;;;;5094610;28;20456;-72
2022/03/16 06:59:42;;;;;;;19.47;10.77;;;;;;;;;;5086862;28;21122;-73
2022/03/16 07:02:13;;;;;;;17.27;11.07;;;;;;;;;;5087600;28;20447;-73
2022/03/16 07:04:41;;;;;;;17.00;11.63;;;;;;;;;;5095072;28;20772;-72
2022/03/16 07:07:09;;;;;;;21.70;13.40;;;;;;;;;;5095501;28;20477;-72
2022/03/16 07:09:37;;;;;;;22.93;10.60;;;;;;;;;;5088852;28;20487;-72
2022/03/16 07:12:05;;;;;;;18.70;10.77;;;;;;;;;;5089731;28;20880;-73
2022/03/16 07:14:54;;;;;;;18.33;11.20;;;;;;;;;;5090287;28;20504;-74
2022/03/16 07:17:23;;;;;;;28.10;13.57;;;;;;;;;;5095035;28;20439;-71
2022/03/16 07:19:51;;;;;;;30.97;13.77;;;;;;;;;;5094208;28;20456;-74
2022/03/16 07:22:19;;;;;;;29.10;15.93;;;;;;;;;;5093963;28;20463;-73
2022/03/16 07:24:47;;;;;;;22.57;12.87;;;;;;;;;;5074986;28;20919;-73
2022/03/16 07:30:06;;;;;;;25.10;12.30;;;;;;;;;;5071302;28;21207;-75
2022/03/16 07:32:36;;;;;;;18.80;10.33;;;;;;;;;;5090695;28;20479;-73
2022/03/16 07:35:11;;;;;;;25.73;12.30;;;;;;;;;;5086370;28;20915;-74
2022/03/16 07:37:42;;;;;;;24.03;11.57;;;;;;;;;;5075323;28;20868;-73
2022/03/16 07:40:13;;;;;;;17.37;10.43;;;;;;;;;;5083950;28;20857;-72
2022/03/16 07:42:45;;;;;;;23.50;10.30;;;;;;;;;;5074628;28;20448;-73
2022/03/16 07:45:18;;;;;;;19.83;8.63;;;;;;;;;;5075191;28;20514;-73
2022/03/16 07:47:47;;;;;;;19.40;8.67;;;;;;;;;;5075059;28;20448;-75
2022/03/16 07:50:15;;;;;;;17.63;10.73;;;;;;;;;;5077254;28;20514;-73
2022/03/16 07:52:44;;;;;;;58.13;37.70;;;;;;;;;;5084623;28;20965;-74
2022/03/16 07:55:13;;;;;;;34.53;22.80;;;;;;;;;;5076041;28;20467;-73
2022/03/16 07:57:43;;;;;;;21.70;11.20;;;;;;;;;;5086985;28;20444;-74
2022/03/16 08:00:12;;;;;;;17.43;10.30;;;;;;;;;;5090582;28;20942;-73
2022/03/16 08:02:48;;;;;;;14.90;9.77;;;;;;;;;;5083455;28;20480;-72
2022/03/16 08:05:21;;;;;;;18.07;10.43;;;;;;;;;;5090307;28;20874;-72
2022/03/16 08:07:55;;;;;;;15.53;10.00;;;;;;;;;;5093905;28;20439;-72
2022/03/16 08:10:30;;;;;;;24.13;10.47;;;;;;;;;;5084096;28;20876;-72
2022/03/16 08:13:02;;;;;;;17.13;9.27;;;;;;;;;;5075803;28;20470;-72
2022/03/16 08:15:30;;;;;;;20.20;9.63;;;;;;;;;;5075466;28;20462;-72
2022/03/16 08:18:04;;;;;;;20.43;9.93;;;;;;;;;;5081347;28;20448;-70
2022/03/16 08:20:42;;;;;;;16.47;9.37;;;;;;;;;;5074940;28;20456;-73
2022/03/16 08:23:11;;;;;;;18.00;10.07;;;;;;;;;;5087247;28;20440;-73
2022/03/16 08:25:38;;;;;;;23.00;10.80;;;;;;;;;;5086406;28;20879;-72
2022/03/16 08:28:07;;;;;;;17.10;8.87;;;;;;;;;;5074031;28;20459;-71
2022/03/16 08:30:38;;;;;;;25.27;11.73;;;;;;;;;;5082366;28;20459;-73
2022/03/16 08:33:08;;;;;;;22.27;10.67;;;;;;;;;;5094848;28;20542;-71
2022/03/16 08:35:37;;;;;;;19.10;10.30;;;;;;;;;;5094609;28;20460;-71
2022/03/16 08:38:07;;;;;;;19.33;9.67;;;;;;;;;;5089511;28;20872;-72
2022/03/16 08:40:36;;;;;;;17.37;10.60;;;;;;;;;;5095509;28;20451;-72
2022/03/16 08:43:07;;;;;;;15.03;9.93;;;;;;;;;;5094933;28;20459;-72
2022/03/16 08:45:39;;;;;;;19.87;9.97;;;;;;;;;;5094627;28;20444;-72
2022/03/16 08:48:11;;;;;;;20.57;10.87;;;;;;;;;;5090222;28;20448;-73
2022/03/16 08:50:43;;;;;;;19.83;11.70;;;;;;;;;;5084950;28;20439;-72
2022/03/16 08:53:12;;;;;;;22.30;11.50;;;;;;;;;;5075018;28;20568;-72
2022/03/16 08:55:46;;;;;;;18.23;11.47;;;;;;;;;;5100830;28;20454;-73
2022/03/16 09:01:15;;;;;;;23.77;10.20;;;;;;;;;;5072014;28;20443;-75
2022/03/16 09:03:56;;;;;;;12.80;9.30;;;;;;;;;;5089136;28;20451;-75
2022/03/16 09:06:26;;;;;;;16.43;8.80;;;;;;;;;;5092225;28;20436;-74
2022/03/16 09:08:54;;;;;;;15.57;8.27;;;;;;;;;;5092890;28;20554;-74
2022/03/16 09:11:34;;;;;;;13.47;7.80;;;;;;;;;;5089726;28;20460;-75
2022/03/16 09:14:05;;;;;;;11.77;6.33;;;;;;;;;;5090173;28;21035;-73
2022/03/16 09:16:37;;;;;;;15.13;6.93;;;;;;;;;;5089162;28;20459;-74
2022/03/16 09:19:09;;;;;;;14.10;6.93;;;;;;;;;;5097034;28;20532;-76
2022/03/16 09:21:47;;;;;;;9.43;6.07;;;;;;;;;;5091939;28;20867;-74
2022/03/16 09:24:21;;;;;;;9.67;5.30;;;;;;;;;;5088207;28;20448;-73
2022/03/16 09:26:50;;;;;;;14.30;6.47;;;;;;;;;;5089364;28;20898;-74
2022/03/16 09:29:18;;;;;;;9.80;5.07;;;;;;;;;;5074363;28;20488;-74
2022/03/16 09:32:06;;;;;;;13.37;6.53;;;;;;;;;;5090521;28;20539;-74
2022/03/16 09:34:49;;;;;;;14.77;5.33;;;;;;;;;;5087856;28;20547;-74
2022/03/16 09:37:19;;;;;;;10.10;5.50;;;;;;;;;;5092163;28;20436;-73
2022/03/16 09:39:57;;;;;;;14.60;6.03;;;;;;;;;;5090278;28;20447;-73
2022/03/16 09:42:31;;;;;;;10.00;5.77;;;;;;;;;;5088404;28;20493;-73
2022/03/16 09:45:07;;;;;;;10.80;6.00;;;;;;;;;;5090747;28;20519;-73
2022/03/16 09:47:52;;;;;;;10.30;5.87;;;;;;;;;;5092754;28;20479;-73
2022/03/16 09:50:24;;;;;;;11.10;5.83;;;;;;;;;;5073749;28;20557;-73
2022/03/16 09:52:54;;;;;;;14.93;8.00;;;;;;;;;;5080126;28;20907;-72
2022/03/16 09:55:30;;;;;;;10.60;5.77;;;;;;;;;;5082436;28;20482;-73
2022/03/16 09:57:58;;;;;;;10.20;5.70;;;;;;;;;;5089079;28;20561;-72
2022/03/16 10:00:27;;;;;;;12.17;6.63;;;;;;;;;;5091376;28;20895;-72
2022/03/16 10:02:55;;;;;;;13.13;6.37;;;;;;;;;;5093332;28;20452;-72
2022/03/16 10:05:29;;;;;;;13.03;5.50;;;;;;;;;;5092836;28;20460;-72
2022/03/16 10:08:02;;;;;;;11.00;6.90;;;;;;;;;;5081485;28;20457;-73
2022/03/16 10:13:22;;;;;;;19.20;5.90;;;;;;;;;;5045646;28;20443;-74
2022/03/16 10:15:52;;;;;;;11.30;5.60;;;;;;;;;;5092732;28;20471;-73
2022/03/16 10:18:34;;;;;;;14.97;6.13;;;;;;;;;;5092599;28;20451;-73
2022/03/16 10:21:05;;;;;;;14.10;6.43;;;;;;;;;;5093287;28;20471;-73
2022/03/16 10:23:37;;;;;;;11.37;5.60;;;;;;;;;;5092666;28;20549;-72
2022/03/16 10:26:06;;;;;;;13.10;6.50;;;;;;;;;;5073435;28;20475;-71
2022/03/16 10:28:42;;;;;;;15.60;6.60;;;;;;;;;;5079341;28;20447;-71
2022/03/16 10:31:11;;;;;;;13.57;5.70;;;;;;;;;;5087058;28;20450;-71
2022/03/16 10:33:45;;;;;;;16.87;7.00;;;;;;;;;;5072321;28;20559;-73
2022/03/16 10:39:34;;;;;;;10.60;5.90;;;;;;;;;;5073306;28;20435;-72
2022/03/16 10:48:03;;;;;;;14.50;8.03;;;;;;;;;;5029342;28;20473;-71
2022/03/16 10:50:41;;;;;;;12.70;6.30;;;;;;;;;;5061991;28;20495;-73
2022/03/16 10:53:18;;;;;;;15.07;6.83;;;;;;;;;;5084618;28;20459;-72
2022/03/16 10:55:50;;;;;;;12.70;6.10;;;;;;;;;;5087049;28;20524;-73
2022/03/16 10:58:26;;;;;;;10.30;5.67;;;;;;;;;;5088779;28;20542;-72
2022/03/16 11:00:56;;;;;;;16.23;5.20;;;;;;;;;;5089494;28;20896;-71
2022/03/16 11:03:29;;;;;;;17.07;6.73;;;;;;;;;;5084722;28;20896;-72
2022/03/16 11:06:10;;;;;;;10.80;6.10;;;;;;;;;;5081640;28;20488;-72
2022/03/16 11:08:46;;;;;;;12.73;7.03;;;;;;;;;;5096162;28;20473;-72
2022/03/16 11:14:09;;;;;;;12.07;5.63;;;;;;;;;;5082134;28;20431;-70
2022/03/16 11:16:43;;;;;;;12.70;5.93;;;;;;;;;;5076870;28;20452;-70
2022/03/16 11:19:14;;;;;;;12.83;6.37;;;;;;;;;;5083231;28;20455;-72
2022/03/16 11:21:49;;;;;;;12.27;7.00;;;;;;;;;;5081688;28;20895;-71
2022/03/16 11:24:21;;;;;;;9.63;6.10;;;;;;;;;;5090869;28;20459;-70
2022/03/16 11:27:18;;;;;;;13.03;6.70;;;;;;;;;;5093183;28;20440;-72
2022/03/16 11:29:52;;;;;;;9.10;3.40;;;;;;;;;;5094259;28;20511;-72
2022/03/16 11:32:21;;;;;;;12.83;6.83;;;;;;;;;;5095226;28;20450;-73
2022/03/16 11:35:12;;;;;;;16.00;7.60;;;;;;;;;;5087819;28;20638;-72
2022/03/16 11:37:47;;;;;;;16.47;8.20;;;;;;;;;;5088713;28;20452;-72
2022/03/16 11:40:22;;;;;;;9.37;4.87;;;;;;;;;;5090187;28;20835;-71
2022/03/16 11:43:16;;;;;;;16.43;8.43;;;;;;;;;;5091466;28;20503;-72
2022/03/16 11:46:00;;;;;;;15.20;7.30;;;;;;;;;;5090374;28;21103;-72
2022/03/16 11:48:44;;;;;;;12.40;5.77;;;;;;;;;;5091433;28;20860;-72
2022/03/16 11:51:25;;;;;;;15.70;6.63;;;;;;;;;;5092170;28;20488;-72
2022/03/16 11:54:27;;;;;;;10.03;4.83;;;;;;;;;;5095341;28;20513;-72
2022/03/16 11:57:04;;;;;;;13.77;5.10;;;;;;;;;;5036835;28;20460;-71
2022/03/16 11:59:44;;;;;;;12.20;5.80;;;;;;;;;;5088174;28;20476;-72
2022/03/16 12:02:22;;;;;;;11.53;5.77;;;;;;;;;;5095341;28;20447;-72
2022/03/16 12:04:55;;;;;;;11.27;5.43;;;;;;;;;;5085588;28;20444;-72
2022/03/16 12:07:30;;;;;;;11.33;5.70;;;;;;;;;;5081593;28;20460;-72
2022/03/16 12:10:03;;;;;;;8.90;5.57;;;;;;;;;;5076781;28;21028;-71
2022/03/16 12:15:23;;;;;;;11.03;4.90;;;;;;;;;;5090258;28;20506;-72
2022/03/16 12:18:14;;;;;;;9.13;5.57;;;;;;;;;;5082826;28;20524;-72
2022/03/16 12:20:45;;;;;;;10.90;5.60;;;;;;;;;;5095117;28;20447;-72
2022/03/16 12:23:20;;;;;;;10.00;5.43;;;;;;;;;;5092514;28;20466;-71
2022/03/16 12:25:58;;;;;;;14.83;4.40;;;;;;;;;;5094712;28;20456;-71
2022/03/16 12:31:21;;;;;;;9.50;4.03;;;;;;;;;;5092622;28;20564;-71
2022/03/16 12:33:52;;;;;;;5.43;2.80;;;;;;;;;;5092370;28;20447;-71
2022/03/16 12:36:26;;;;;;;8.60;4.07;;;;;;;;;;5092836;28;20452;-71
2022/03/16 12:39:03;;;;;;;9.57;4.90;;;;;;;;;;5084116;28;20460;-72
2022/03/16 12:44:24;;;;;;;8.50;4.60;;;;;;;;;;5079448;28;20431;-71
2022/03/16 12:47:14;;;;;;;9.23;3.90;;;;;;;;;;5087291;28;20447;-72
2022/03/16 12:49:48;;;;;;;9.90;4.70;;;;;;;;;;5079641;28;20484;-71
2022/03/16 12:52:17;;;;;;;8.83;4.17;;;;;;;;;;5078274;28;20517;-71
2022/03/16 12:54:45;;;;;;;13.93;4.53;;;;;;;;;;5093637;28;20833;-71
2022/03/16 12:57:19;;;;;;;8.60;4.23;;;;;;;;;;5091887;28;20879;-72
2022/03/16 12:59:53;;;;;;;8.60;5.10;;;;;;;;;;5091361;28;20957;-72
2022/03/16 13:02:22;;;;;;;10.17;5.20;;;;;;;;;;5088152;28;20463;-71
2022/03/16 13:04:55;;;;;;;7.07;3.93;;;;;;;;;;5072585;28;20453;-72
2022/03/16 13:07:27;;;;;;;11.43;5.60;;;;;;;;;;5075735;28;20448;-72
2022/03/16 13:10:08;;;;;;;8.03;4.77;;;;;;;;;;5075355;28;20481;-72
2022/03/16 13:12:56;;;;;;;12.07;5.53;;;;;;;;;;5083694;28;20565;-72
2022/03/16 13:15:40;;;;;;;12.40;5.50;;;;;;;;;;5078741;28;20516;-72
2022/03/16 13:18:09;;;;;;;8.83;4.13;;;;;;;;;;5092403;28;20568;-71
2022/03/16 13:21:03;;;;;;;14.07;6.30;;;;;;;;;;5079224;28;20441;-71
2022/03/16 13:23:33;;;;;;;9.80;5.20;;;;;;;;;;5082578;28;20470;-71
2022/03/16 13:26:15;;;;;;;8.97;4.13;;;;;;;;;;5083007;28;20449;-72
2022/03/16 13:28:44;;;;;;;8.17;4.60;;;;;;;;;;5076078;28;20461;-70
2022/03/16 13:31:24;;;;;;;8.07;5.30;;;;;;;;;;5076283;28;20945;-72
2022/03/16 13:34:03;;;;;;;10.47;4.77;;;;;;;;;;5074055;28;20452;-72
2022/03/16 13:36:44;;;;;;;10.90;5.00;;;;;;;;;;5075142;28;20476;-71
2022/03/16 13:39:36;;;;;;;7.03;4.47;;;;;;;;;;5091068;28;20464;-71
2022/03/16 13:42:42;;;;;;;10.57;4.00;;;;;;;;;;5081557;28;20892;-71
2022/03/16 13:45:30;;;;;;;9.40;4.60;;;;;;;;;;5091932;28;20454;-72
2022/03/16 13:48:22;;;;;;;10.43;4.93;;;;;;;;;;5088981;28;20448;-72
2022/03/16 13:54:11;;;;;;;8.80;4.47;;;;;;;;;;5075915;28;20440;-71
2022/03/16 13:56:54;;;;;;;10.23;4.50;;;;;;;;;;5091553;28;20817;-72
2022/03/16 13:59:34;;;;;;;8.87;5.40;;;;;;;;;;5091553;28;20452;-71
2022/03/16 14:02:15;;;;;;;5.83;3.80;;;;;;;;;;5093137;28;20439;-72
2022/03/16 14:04:50;;;;;;;13.03;5.20;;;;;;;;;;5074351;28;20733;-71
2022/03/16 14:07:23;;;;;;;14.70;6.40;;;;;;;;;;5073425;28;20559;-71
2022/03/16 14:09:54;;;;;;;10.20;5.40;;;;;;;;;;5089901;28;20481;-72
2022/03/16 14:12:23;;;;;;;9.20;5.87;;;;;;;;;;5086233;28;20745;-71
2022/03/16 14:15:03;;;;;;;12.87;5.57;;;;;;;;;;5085974;28;20907;-71
2022/03/16 14:17:58;;;;;;;11.50;5.73;;;;;;;;;;5090472;28;20479;-71
2022/03/16 14:20:34;;;;;;;13.93;6.33;;;;;;;;;;5062785;28;20463;-72
2022/03/16 14:23:07;;;;;;;13.40;6.20;;;;;;;;;;5087119;28;20975;-72
2022/03/16 14:25:41;;;;;;;8.30;5.00;;;;;;;;;;5087161;28;20441;-72
2022/03/16 14:28:12;;;;;;;8.77;5.60;;;;;;;;;;5084346;28;20557;-72
2022/03/16 14:30:49;;;;;;;11.93;6.00;;;;;;;;;;5087918;28;20468;-74
2022/03/16 14:33:22;;;;;;;13.53;7.90;;;;;;;;;;5093112;28;20471;-72
2022/03/16 14:42:00;;;;;;;14.67;7.33;;;;;;;;;;5086351;28;20508;-73
2022/03/16 14:47:37;;;;;;;12.20;6.40;;;;;;;;;;5092121;28;20554;-72
2022/03/16 14:50:19;;;;;;;15.87;6.80;;;;;;;;;;5088852;28;20465;-72
2022/03/16 14:52:49;;;;;;;15.10;8.77;;;;;;;;;;5093868;28;20851;-72
2022/03/16 14:55:22;;;;;;;12.70;7.13;;;;;;;;;;5093411;28;20468;-73
2022/03/16 14:57:50;;;;;;;14.17;6.87;;;;;;;;;;5092586;28;20861;-73
2022/03/16 15:00:18;;;;;;;15.30;8.80;;;;;;;;;;5090042;28;20846;-72
2022/03/16 15:02:55;;;;;;;11.50;8.00;;;;;;;;;;5095143;28;20479;-72
2022/03/16 15:05:28;;;;;;;15.43;8.20;;;;;;;;;;5079508;28;20455;-72
2022/03/16 15:08:11;;;;;;;14.50;8.60;;;;;;;;;;5091936;28;20824;-71
2022/03/16 15:10:48;;;;;;;13.20;8.33;;;;;;;;;;5090200;28;20510;-72
2022/03/16 15:13:25;;;;;;;11.23;8.03;;;;;;;;;;5092112;28;20451;-72
2022/03/16 15:16:00;;;;;;;14.50;8.00;;;;;;;;;;5090760;28;20452;-71
2022/03/16 15:21:22;;;;;;;15.60;8.70;;;;;;;;;;5080108;28;20428;-71
2022/03/16 15:24:07;;;;;;;15.27;9.27;;;;;;;;;;5088403;28;20524;-73
2022/03/16 15:26:53;;;;;;;17.07;9.20;;;;;;;;;;5093526;28;20436;-71
2022/03/16 15:29:34;;;;;;;14.33;9.57;;;;;;;;;;5089226;28;20798;-71
2022/03/16 15:35:27;;;;;;;12.93;7.80;;;;;;;;;;5011935;28;20538;-72
2022/03/16 15:43:58;;;;;;;14.37;8.90;;;;;;;;;;5095183;28;20498;-71
2022/03/16 15:46:30;;;;;;;15.63;8.83;;;;;;;;;;5095442;28;20840;-70
2022/03/16 15:49:01;;;;;;;13.80;8.97;;;;;;;;;;5093330;28;20439;-72